Time;durP1;ratioP1;P1;durP2;ratioP2;P2;SDS_P1;SDS_P2;PMS_P1;PMS_P2;Temp;Humidity;BMP_temperature;BMP_pressure;BME280_temperature;BME280_humidity;BME280_pressure;Samples;Min_cycle;Max_cycle;Signal;HPM_P1;HPM_P2
2022/11/22 00:00:19;;;;;;;;;;;;;;;20.36;60.38;96929.88;2083722;28;19925;-48
2022/11/22 00:01:20;;;;;;;7.95;6.20;;;;;;;20.47;60.04;96920.81;2079015;28;19975;-48
2022/11/22 00:02:21;;;;;;;7.80;5.82;;;;;;;20.51;59.96;96924.63;2080939;28;20464;-47
2022/11/22 00:03:23;;;;;;;7.55;5.82;;;;;;;20.56;59.93;96925.75;2080768;28;20153;-48
2022/11/22 00:04:24;;;;;;;6.70;5.05;;;;;;;20.59;59.78;96925.22;2080273;28;20112;-48
2022/11/22 00:05:25;;;;;;;8.35;5.47;;;;;;;20.61;60.05;96918.50;2075202;28;20197;-47
2022/11/22 00:06:29;;;;;;;8.20;5.50;;;;;;;20.62;59.87;96909.38;2078408;28;20194;-46
2022/11/22 00:07:30;;;;;;;8.20;5.40;;;;;;;20.62;59.63;96901.31;2080012;28;20072;-47
2022/11/22 00:08:32;;;;;;;6.63;5.18;;;;;;;20.61;59.66;96901.53;2079274;28;20440;-46
2022/11/22 00:09:33;;;;;;;7.18;5.68;;;;;;;20.62;60.06;96895.09;2081600;28;20067;-46
2022/11/22 00:10:35;;;;;;;8.25;5.07;;;;;;;20.63;59.54;96892.13;2081108;28;20152;-45
2022/11/22 00:11:36;;;;;;;7.10;5.65;;;;;;;20.65;59.67;96881.13;2079949;28;20128;-46
2022/11/22 00:12:38;;;;;;;6.50;5.10;;;;;;;20.65;59.58;96870.34;2081657;28;21469;-45
2022/11/22 00:13:40;;;;;;;6.43;5.13;;;;;;;20.65;59.48;96871.16;2081458;28;20048;-48
2022/11/22 00:14:41;;;;;;;6.82;5.63;;;;;;;20.65;59.84;96864.97;2079863;28;20045;-46
2022/11/22 00:15:42;;;;;;;9.20;6.03;;;;;;;20.65;59.93;96862.25;2083947;28;20197;-47
2022/11/22 00:16:43;;;;;;;9.32;6.25;;;;;;;20.64;59.62;96858.72;2079437;28;20783;-50
2022/11/22 00:17:45;;;;;;;8.45;5.47;;;;;;;20.65;59.82;96852.28;2079410;28;20136;-49
2022/11/22 00:18:46;;;;;;;6.53;4.97;;;;;;;20.65;59.48;96852.28;2080699;28;20053;-47
2022/11/22 00:19:48;;;;;;;7.57;5.47;;;;;;;20.65;59.63;96843.41;2079731;28;20180;-50
2022/11/22 00:20:49;;;;;;;7.13;5.03;;;;;;;20.67;59.54;96839.38;2079396;28;20862;-50
2022/11/22 00:21:51;;;;;;;;;;;;;;;20.53;60.14;96840.88;2079759;28;20084;-48
2022/11/22 00:22:52;;;;;;;7.63;5.45;;;;;;;20.57;60.09;96835.81;2080407;28;19929;-50
2022/11/22 00:23:55;;;;;;;6.43;4.35;;;;;;;20.62;59.91;96830.47;2079709;28;20052;-48
2022/11/22 00:24:56;;;;;;;9.70;6.07;;;;;;;20.63;60.03;96824.78;2079929;28;20060;-48
2022/11/22 00:25:58;;;;;;;8.80;5.28;;;;;;;20.62;59.69;96817.00;2080017;28;20528;-48
2022/11/22 00:26:59;;;;;;;9.07;4.93;;;;;;;20.64;59.66;96815.63;2081209;28;20057;-48
2022/11/22 00:28:01;;;;;;;7.32;5.40;;;;;;;20.65;59.62;96806.50;2080401;28;20467;-48
2022/11/22 00:29:03;;;;;;;7.63;5.40;;;;;;;20.67;59.85;96808.91;2079225;28;20057;-47
2022/11/22 00:30:05;;;;;;;9.85;6.07;;;;;;;20.65;59.58;96801.13;2078053;28;20075;-48
2022/11/22 00:31:07;;;;;;;8.88;5.25;;;;;;;20.65;59.45;96784.94;2081354;28;20622;-47
2022/11/22 00:32:08;;;;;;;7.20;5.80;;;;;;;20.68;59.71;96783.63;2079294;28;20057;-46
2022/11/22 00:33:10;;;;;;;8.23;5.72;;;;;;;20.65;59.88;96782.25;2080056;28;20045;-50
2022/11/22 00:34:10;;;;;;;7.70;5.68;;;;;;;20.65;59.91;96779.56;2079318;28;20049;-50
2022/11/22 00:35:12;;;;;;;;;;;;;;;20.54;60.01;96772.50;2080304;28;20519;-49
2022/11/22 00:36:13;;;;;;;10.05;5.78;;;;;;;20.54;59.95;96772.50;2078849;28;19936;-48
2022/11/22 00:37:16;;;;;;;7.15;5.40;;;;;;;20.58;59.78;96762.81;2080180;28;20099;-49
2022/11/22 00:38:17;;;;;;;7.70;4.93;;;;;;;20.61;59.88;96767.69;2081716;28;20045;-45
2022/11/22 00:39:18;;;;;;;8.93;5.00;;;;;;;20.61;59.69;96767.69;2083761;28;20101;-48
2022/11/22 00:40:19;;;;;;;7.75;5.32;;;;;;;20.62;59.53;96769.31;2082888;28;20048;-47
2022/11/22 00:41:21;;;;;;;;;;;;;;;20.49;60.06;96764.34;2082136;28;20128;-48
2022/11/22 00:42:22;;;;;;;6.80;5.30;;;;;;;20.52;59.89;96766.53;2083439;28;20299;-47
2022/11/22 00:43:23;;;;;;;6.35;4.90;;;;;;;20.55;60.10;96757.94;2083523;28;20057;-47
2022/11/22 00:44:24;;;;;;;6.00;4.82;;;;;;;20.58;59.76;96762.81;2079746;28;20060;-49
2022/11/22 00:45:26;;;;;;;6.55;5.25;;;;;;;20.59;59.74;96753.69;2080172;28;20544;-46
2022/11/22 00:46:27;;;;;;;8.93;5.68;;;;;;;20.59;60.03;96747.47;2082009;28;20431;-47
2022/11/22 00:47:29;;;;;;;9.43;5.95;;;;;;;20.60;59.57;96749.09;2078356;28;20057;-51
2022/11/22 00:48:29;;;;;;;8.80;5.25;;;;;;;20.58;59.90;96743.97;2079123;28;20139;-47
2022/11/22 00:49:31;;;;;;;;;;;;;;;20.47;59.88;96734.97;2078266;28;20721;-49
2022/11/22 00:50:31;;;;;;;;;;;;;;;20.35;60.21;96729.00;2079246;28;19988;-47
2022/11/22 00:51:33;;;;;;;6.60;4.38;;;;;;;20.43;60.28;96723.13;2080550;28;20479;-46
2022/11/22 00:52:35;;;;;;;6.53;5.13;;;;;;;20.49;60.21;96715.88;2078821;28;20760;-50
2022/11/22 00:53:37;;;;;;;8.88;5.40;;;;;;;20.54;60.12;96710.56;2079305;28;20053;-50
2022/11/22 00:54:38;;;;;;;6.15;4.65;;;;;;;20.58;60.03;96708.94;2078683;28;20045;-46
2022/11/22 00:55:39;;;;;;;;;;;;;;;20.47;60.11;96704.56;2079989;28;21295;-48
2022/11/22 00:56:40;;;;;;;;;;;;;;;20.39;60.18;96691.59;2079243;28;19947;-46
2022/11/22 00:57:42;;;;;;;5.70;5.10;;;;;;;20.45;60.18;96695.94;2079326;28;19924;-47
2022/11/22 00:58:43;;;;;;;10.77;5.93;;;;;;;20.52;60.00;96693.81;2080177;28;20060;-49
2022/11/22 00:59:44;;;;;;;7.05;4.65;;;;;;;20.54;59.73;96689.00;2080028;28;21033;-51
2022/11/22 01:00:45;;;;;;;6.50;4.90;;;;;;;20.57;59.66;96688.47;2079320;28;20488;-47
2022/11/22 01:01:47;;;;;;;8.13;5.38;;;;;;;20.59;60.07;96682.81;2081686;28;20063;-47
2022/11/22 01:02:48;;;;;;;8.15;5.32;;;;;;;20.61;59.56;96692.25;2081673;28;20076;-46
2022/11/22 01:03:49;;;;;;;;;;;;;;;20.51;59.97;96681.44;2083565;28;20950;-48
2022/11/22 01:04:50;;;;;;;;;;;;;;;20.41;60.37;96682.19;2079906;28;19928;-49
2022/11/22 01:05:52;;;;;;;7.07;4.15;;;;;;;20.48;60.36;96672.00;2080729;28;19935;-47
2022/11/22 01:06:53;;;;;;;7.00;5.35;;;;;;;20.51;60.12;96676.84;2079522;28;20053;-50
2022/11/22 01:07:56;;;;;;;5.65;4.53;;;;;;;20.56;59.75;96672.56;2080492;28;20084;-47
2022/11/22 01:08:57;;;;;;;7.22;4.90;;;;;;;20.59;59.79;96667.50;2083155;28;20053;-47
2022/11/22 01:09:58;;;;;;;5.65;4.57;;;;;;;20.61;59.53;96659.94;2082114;28;20060;-49
2022/11/22 01:11:01;;;;;;;7.28;5.20;;;;;;;20.61;59.87;96657.25;2082779;28;20049;-47
2022/11/22 01:12:03;;;;;;;8.48;5.05;;;;;;;20.62;59.85;96661.56;2083525;28;20060;-46
2022/11/22 01:13:05;;;;;;;8.30;4.68;;;;;;;20.62;59.64;96653.50;2079161;28;20065;-50
2022/11/22 01:14:07;;;;;;;7.38;5.25;;;;;;;20.62;59.55;96642.72;2078639;28;20087;-45
2022/11/22 01:15:09;;;;;;;7.55;4.90;;;;;;;20.62;59.81;96634.63;2079920;28;20072;-47
2022/11/22 01:16:12;;;;;;;6.25;4.25;;;;;;;20.63;59.38;96641.63;2078263;28;20057;-47
2022/11/22 01:17:13;;;;;;;7.25;5.13;;;;;;;20.63;59.85;96630.06;2079031;28;20049;-48
2022/11/22 01:18:15;;;;;;;6.97;4.97;;;;;;;20.61;59.81;96624.91;2079124;28;20059;-49
2022/11/22 01:19:15;;;;;;;8.02;5.13;;;;;;;20.62;59.55;96621.19;2078750;28;20049;-50
2022/11/22 01:20:17;;;;;;;6.07;4.30;;;;;;;20.62;59.86;96613.09;2078825;28;20053;-47
2022/11/22 01:21:18;;;;;;;8.50;5.57;;;;;;;20.62;59.26;96615.78;2079404;28;20056;-49
2022/11/22 01:22:20;;;;;;;5.63;4.50;;;;;;;20.61;59.67;96603.38;2080251;28;20057;-46
2022/11/22 01:23:22;;;;;;;5.93;4.38;;;;;;;20.63;59.68;96598.53;2078649;28;20159;-47
2022/11/22 01:24:24;;;;;;;8.35;5.38;;;;;;;20.63;59.44;96595.03;2078082;28;20084;-50
2022/11/22 01:25:25;;;;;;;6.53;5.18;;;;;;;20.65;59.29;96595.59;2080765;28;20409;-46
2022/11/22 01:26:26;;;;;;;;;;;;;;;20.56;59.59;96591.78;2080921;28;20053;-46
2022/11/22 01:27:27;;;;;;;6.93;4.57;;;;;;;20.57;60.00;96586.13;2078369;28;19966;-50
2022/11/22 01:28:28;;;;;;;;;;;;;;;20.47;59.87;96581.50;2079787;28;21784;-46
2022/11/22 01:29:29;;;;;;;;;;;;;;;20.40;60.15;96574.75;2079687;28;19925;-51
2022/11/22 01:30:31;;;;;;;6.77;5.23;;;;;;;20.46;59.93;96568.31;2079600;28;19925;-45
2022/11/22 01:31:32;;;;;;;6.97;4.45;;;;;;;20.55;59.96;96564.03;2078480;28;20396;-47
2022/11/22 01:32:33;;;;;;;7.15;5.32;;;;;;;20.57;59.75;96559.22;2081051;28;20041;-46
2022/11/22 01:33:35;;;;;;;;;;;;;;;20.46;60.28;96547.56;2080458;28;20607;-47
2022/11/22 01:34:35;;;;;;;5.90;4.88;;;;;;;20.53;60.02;96539.25;2079489;28;19970;-47
2022/11/22 01:35:37;;;;;;;;;;;;;;;20.46;60.19;96546.78;2079694;28;20059;-48
2022/11/22 01:36:38;;;;;;;;;;;;;;;20.39;60.45;96536.22;2080097;28;20345;-50
2022/11/22 01:37:39;;;;;;;5.97;4.23;;;;;;;20.47;60.21;96533.03;2078477;28;19975;-48
2022/11/22 01:38:42;;;;;;;7.53;4.82;;;;;;;20.57;60.24;96531.47;2080330;28;20049;-46
2022/11/22 01:39:44;;;;;;;4.82;4.30;;;;;;;20.61;60.05;96529.84;2082991;28;20472;-48
2022/11/22 01:40:44;;;;;;;8.07;5.63;;;;;;;20.61;59.72;96525.25;2082265;28;20123;-48
2022/11/22 01:41:46;;;;;;;9.55;5.75;;;;;;;20.65;59.74;96520.16;2080738;28;20048;-51
2022/11/22 01:42:50;;;;;;;5.55;4.35;;;;;;;20.66;59.61;96517.19;2080880;28;20045;-49
2022/11/22 01:43:52;;;;;;;6.90;5.28;;;;;;;20.65;59.86;96507.50;2079839;28;20086;-47
2022/11/22 01:44:53;;;;;;;7.30;4.32;;;;;;;20.65;59.48;96501.31;2080114;28;20056;-46
2022/11/22 01:45:55;;;;;;;;;;;;;;;20.55;60.18;96504.00;2080664;28;20055;-47
2022/11/22 01:46:59;;;;;;;5.72;4.22;;;;;;;20.59;60.08;96492.44;2078153;28;19925;-47
2022/11/22 01:48:04;;;;;;;6.88;4.20;;;;;;;20.61;59.71;96487.56;2079805;28;20057;-47
2022/11/22 01:49:12;;;;;;;7.38;5.05;;;;;;;20.64;59.78;96481.63;2078907;28;20048;-47
2022/11/22 01:50:16;;;;;;;6.65;4.43;;;;;;;20.64;59.79;96476.25;2079204;28;20057;-45
2022/11/22 01:51:26;;;;;;;6.75;4.80;;;;;;;20.65;59.87;96469.81;2078170;28;20083;-46
2022/11/22 01:52:30;;;;;;;7.47;5.32;;;;;;;20.66;59.64;96463.31;2078422;28;21966;-49
2022/11/22 01:53:35;;;;;;;7.20;4.60;;;;;;;20.66;59.54;96457.94;2079841;28;20409;-46
2022/11/22 01:54:41;;;;;;;6.38;4.93;;;;;;;20.67;59.74;96456.03;2079566;28;20057;-45
2022/11/22 01:55:43;;;;;;;5.82;4.63;;;;;;;20.67;59.84;96450.66;2073440;28;20044;-47
2022/11/22 01:56:50;;;;;;;5.75;4.10;;;;;;;20.65;59.87;96444.75;2080049;28;20411;-51
2022/11/22 01:57:51;;;;;;;8.65;4.82;;;;;;;20.66;59.81;96444.47;2078942;28;20056;-48
2022/11/22 01:58:58;;;;;;;7.32;5.30;;;;;;;20.66;59.73;96436.38;2079546;28;20153;-46
2022/11/22 02:00:03;;;;;;;7.63;4.97;;;;;;;20.67;59.80;96431.81;2080236;28;20053;-47
2022/11/22 02:01:06;;;;;;;5.75;4.35;;;;;;;20.67;59.34;96427.25;2079887;28;20064;-47
2022/11/22 02:02:07;;;;;;;6.38;4.22;;;;;;;20.69;59.46;96424.28;2077678;28;20049;-47
2022/11/22 02:03:11;;;;;;;;;;;;;;;20.58;60.11;96420.78;2079787;28;20053;-48
2022/11/22 02:04:15;;;;;;;5.10;4.07;;;;;;;20.60;59.55;96410.53;2081346;28;19924;-46
2022/11/22 02:05:20;;;;;;;6.88;4.63;;;;;;;20.64;59.69;96410.81;2079203;28;20405;-47
2022/11/22 02:06:23;;;;;;;6.95;5.65;;;;;;;20.64;59.74;96414.28;2080164;28;20116;-47
2022/11/22 02:07:30;;;;;;;5.97;4.57;;;;;;;20.65;59.78;96407.84;2077998;28;20057;-46
2022/11/22 02:08:37;;;;;;;8.40;4.95;;;;;;;20.66;59.42;96404.06;2079718;28;20069;-49
2022/11/22 02:09:41;;;;;;;6.40;4.28;;;;;;;20.67;59.73;96402.19;2081053;28;20051;-48
2022/11/22 02:10:47;;;;;;;6.38;4.32;;;;;;;20.66;59.79;96400.56;2079937;28;20056;-47
2022/11/22 02:11:50;;;;;;;6.70;4.10;;;;;;;20.66;59.79;96392.50;2079210;28;20041;-46
2022/11/22 02:12:55;;;;;;;6.70;4.28;;;;;;;20.66;59.70;96397.88;2079555;28;20037;-47
2022/11/22 02:13:56;;;;;;;8.35;5.53;;;;;;;20.65;59.40;96389.00;2077991;28;20052;-46
2022/11/22 02:14:59;;;;;;;6.15;4.72;;;;;;;20.65;59.53;96383.59;2079297;28;20605;-48
2022/11/22 02:16:00;;;;;;;7.35;4.35;;;;;;;20.65;59.46;96377.41;2079077;28;20118;-49
2022/11/22 02:17:02;;;;;;;6.38;5.13;;;;;;;20.63;59.61;96366.91;2077777;28;20164;-47
2022/11/22 02:18:03;;;;;;;6.05;4.47;;;;;;;20.63;59.31;96368.78;2076973;28;20053;-48
2022/11/22 02:19:05;;;;;;;;;;;;;;;20.50;59.76;96353.97;2081305;28;20136;-47
2022/11/22 02:20:08;;;;;;;7.03;4.47;;;;;;;20.53;60.25;96351.59;2078452;28;20047;-47
2022/11/22 02:21:10;;;;;;;7.75;4.18;;;;;;;20.56;59.58;96352.09;2079217;28;20150;-49
2022/11/22 02:22:26;;;;;;;7.15;4.32;;;;;;;20.55;59.60;96354.00;2079580;28;20132;-46
2022/11/22 02:23:35;;;;;;;6.07;4.40;;;;;;;20.56;59.86;96360.16;2079148;28;20049;-50
2022/11/22 02:24:44;;;;;;;7.35;5.55;;;;;;;20.55;59.64;96345.09;2079613;28;20040;-48
2022/11/22 02:25:55;;;;;;;7.13;4.55;;;;;;;20.53;59.61;96346.19;2078968;28;20139;-48
2022/11/22 02:26:58;;;;;;;;;;;;;;;20.42;59.95;96339.19;2079036;28;20163;-50
2022/11/22 02:27:59;;;;;;;7.50;4.45;;;;;;;20.46;59.97;96339.44;2078404;28;19935;-49
2022/11/22 02:29:04;;;;;;;;;;;;;;;20.36;60.03;96339.44;2078945;28;20087;-51
2022/11/22 02:30:05;;;;;;;6.80;4.82;;;;;;;20.45;60.06;96337.84;2078906;28;19924;-49
2022/11/22 02:31:07;;;;;;;5.75;4.57;;;;;;;20.49;59.95;96328.13;2078793;28;20701;-48
2022/11/22 02:32:08;;;;;;;6.68;4.53;;;;;;;20.55;59.51;96318.97;2079843;28;21055;-46
2022/11/22 02:33:10;;;;;;;6.45;4.53;;;;;;;20.59;59.56;96313.84;2079416;28;20049;-46
2022/11/22 02:34:12;;;;;;;5.25;3.78;;;;;;;20.63;59.66;96304.16;2077903;28;20055;-47
2022/11/22 02:35:18;;;;;;;4.97;4.47;;;;;;;20.63;59.70;96291.50;2080985;28;20045;-49
2022/11/22 02:36:19;;;;;;;4.70;4.05;;;;;;;20.62;59.85;96294.47;2079589;28;20048;-48
2022/11/22 02:37:24;;;;;;;6.80;4.85;;;;;;;20.63;59.61;96285.31;2079120;28;20378;-45
2022/11/22 02:38:27;;;;;;;6.93;5.13;;;;;;;20.64;59.46;96281.53;2082199;28;20086;-46
2022/11/22 02:39:31;;;;;;;7.93;5.15;;;;;;;20.64;59.72;96271.53;2077880;28;20057;-46
2022/11/22 02:40:37;;;;;;;6.32;4.78;;;;;;;20.64;59.49;96266.16;2082955;28;20049;-46
2022/11/22 02:41:40;;;;;;;7.72;5.43;;;;;;;20.62;59.52;96267.53;2082995;28;20041;-46
2022/11/22 02:42:47;;;;;;;6.70;4.72;;;;;;;20.64;59.50;96260.78;2077672;28;20678;-50
2022/11/22 02:43:49;;;;;;;6.40;4.35;;;;;;;20.62;59.41;96256.78;2079647;28;20530;-46
2022/11/22 02:44:49;;;;;;;6.75;5.57;;;;;;;20.62;59.36;96249.50;2077915;28;20049;-46
2022/11/22 02:45:51;;;;;;;7.03;5.28;;;;;;;20.63;59.48;96256.47;2079307;28;20063;-50
2022/11/22 02:46:54;;;;;;;5.22;3.95;;;;;;;20.64;59.67;96255.38;2078481;28;20103;-50
2022/11/22 02:48:05;;;;;;;6.72;4.78;;;;;;;20.63;59.67;96250.28;2080641;28;20064;-48
2022/11/22 02:49:06;;;;;;;5.93;4.53;;;;;;;20.63;59.45;96247.59;2078838;28;20045;-51
2022/11/22 02:50:08;;;;;;;5.35;4.18;;;;;;;20.62;59.73;96246.78;2078239;28;20064;-47
2022/11/22 02:51:15;;;;;;;6.28;4.40;;;;;;;20.61;59.48;96244.38;2079937;28;20499;-45
2022/11/22 02:52:16;;;;;;;5.15;3.80;;;;;;;20.64;59.52;96250.00;2079128;28;20057;-47
2022/11/22 02:53:18;;;;;;;6.93;4.75;;;;;;;20.64;59.59;96239.22;2078131;28;20635;-48
2022/11/22 02:54:19;;;;;;;6.82;4.78;;;;;;;20.64;59.57;96239.22;2077480;28;20063;-47
2022/11/22 02:55:21;;;;;;;5.82;4.32;;;;;;;20.65;59.29;96231.97;2080644;28;21108;-51
2022/11/22 02:56:22;;;;;;;6.57;4.07;;;;;;;20.65;59.36;96231.97;2077909;28;20064;-48
2022/11/22 02:57:25;;;;;;;6.45;4.10;;;;;;;20.65;59.30;96235.47;2080030;28;20080;-50
2022/11/22 02:58:26;;;;;;;5.95;4.70;;;;;;;20.66;59.32;96230.88;2080002;28;20099;-52
2022/11/22 02:59:27;;;;;;;;;;;;;;;20.51;59.68;96234.41;2077705;28;20102;-47
2022/11/22 03:00:28;;;;;;;6.40;5.07;;;;;;;20.57;59.72;96232.53;2075534;28;19928;-46
2022/11/22 03:01:29;;;;;;;;;;;;;;;20.48;60.03;96224.19;2082879;28;20053;-48
2022/11/22 03:02:30;;;;;;;6.47;4.50;;;;;;;20.52;59.82;96230.63;2078170;28;19929;-47
2022/11/22 03:03:32;;;;;;;4.93;4.38;;;;;;;20.55;59.92;96224.72;2080696;28;20142;-50
2022/11/22 03:04:33;;;;;;;4.68;3.72;;;;;;;20.59;59.85;96227.66;2078895;28;20056;-49
2022/11/22 03:05:35;;;;;;;6.75;4.72;;;;;;;20.60;59.71;96222.03;2078986;28;20049;-47
2022/11/22 03:06:35;;;;;;;6.18;4.10;;;;;;;20.60;59.50;96219.31;2079533;28;20052;-45
2022/11/22 03:07:37;;;;;;;6.60;4.18;;;;;;;20.62;59.68;96203.72;2079006;28;20488;-46
2022/11/22 03:08:38;;;;;;;6.70;3.85;;;;;;;20.64;59.70;96206.91;2077890;28;20044;-48
2022/11/22 03:09:40;;;;;;;5.78;4.40;;;;;;;20.63;59.25;96191.03;2078332;28;20044;-47
2022/11/22 03:10:41;;;;;;;5.47;4.60;;;;;;;20.61;59.74;96191.31;2078347;28;20053;-45
2022/11/22 03:11:42;;;;;;;;;;;;;;;20.50;60.03;96189.69;2079449;28;20045;-48
2022/11/22 03:12:44;;;;;;;;;;;;;;;20.39;60.05;96188.13;2077937;28;20827;-49
2022/11/22 03:13:46;;;;;;;7.53;4.30;;;;;;;20.47;59.84;96180.28;2079544;28;19960;-48
2022/11/22 03:14:47;;;;;;;5.72;4.00;;;;;;;20.52;59.90;96182.16;2076886;28;20049;-50
2022/11/22 03:15:48;;;;;;;;;;;;;;;20.40;60.01;96171.72;2075944;28;20061;-49
2022/11/22 03:16:50;;;;;;;4.45;4.05;;;;;;;20.47;60.17;96171.41;2077615;28;19925;-47
2022/11/22 03:17:57;;;;;;;6.68;4.18;;;;;;;20.51;60.00;96167.91;2076142;28;20046;-48
2022/11/22 03:18:58;;;;;;;7.53;4.22;;;;;;;20.50;59.97;96163.59;2074710;28;20050;-49
2022/11/22 03:19:59;;;;;;;5.25;4.10;;;;;;;20.52;59.66;96161.41;2077781;28;20152;-48
2022/11/22 03:21:02;;;;;;;7.20;4.07;;;;;;;20.53;59.70;96160.38;2078936;28;20593;-46
2022/11/22 03:22:04;;;;;;;6.22;4.57;;;;;;;20.55;59.85;96159.28;2079799;28;20159;-51
2022/11/22 03:23:04;;;;;;;6.60;4.30;;;;;;;20.55;59.56;96148.53;2081242;28;20049;-46
2022/11/22 03:24:07;;;;;;;;;;;;;;;20.38;60.10;96141.56;2081530;28;21451;-46
2022/11/22 03:25:08;;;;;;;6.35;3.95;;;;;;;20.41;60.14;96138.31;2076353;28;19967;-46
2022/11/22 03:26:10;;;;;;;;;;;;;;;20.35;60.18;96130.53;2079557;28;20037;-49
2022/11/22 03:27:11;;;;;;;5.75;4.25;;;;;;;20.39;59.96;96139.66;2078045;28;19928;-46
2022/11/22 03:28:14;;;;;;;6.15;4.18;;;;;;;20.47;59.59;96128.31;2078503;28;20045;-48
2022/11/22 03:29:15;;;;;;;5.70;4.40;;;;;;;20.50;59.49;96122.38;2078494;28;20041;-47
2022/11/22 03:30:17;;;;;;;8.45;4.50;;;;;;;20.54;59.36;96115.41;2077495;28;20076;-47
2022/11/22 03:31:18;;;;;;;5.75;4.00;;;;;;;20.57;59.65;96112.16;2079974;28;20064;-46
2022/11/22 03:32:20;;;;;;;5.70;4.38;;;;;;;20.59;59.65;96112.69;2077517;28;20488;-46
2022/11/22 03:33:21;;;;;;;6.78;4.22;;;;;;;20.61;59.33;96109.72;2077684;28;20136;-47
2022/11/22 03:34:22;;;;;;;;;;;;;;;20.48;59.79;96113.81;2076879;28;20056;-49
2022/11/22 03:35:23;;;;;;;4.95;3.88;;;;;;;20.49;59.78;96108.13;2078035;28;19976;-48
2022/11/22 03:36:25;;;;;;;;;;;;;;;20.43;60.16;96105.75;2080458;28;20048;-49
2022/11/22 03:37:26;;;;;;;;;;;;;;;20.36;60.38;96102.53;2078775;28;20001;-48
2022/11/22 03:38:27;;;;;;;4.75;3.63;;;;;;;20.46;59.81;96094.41;2078695;28;19967;-48
2022/11/22 03:39:28;;;;;;;;;;;;;;;20.37;60.21;96093.38;2078404;28;20053;-48
2022/11/22 03:40:29;;;;;;;5.80;3.80;;;;;;;20.45;60.18;96092.81;2080275;28;20461;-47
2022/11/22 03:41:31;;;;;;;;;;;;;;;20.39;60.17;96089.31;2079216;28;20041;-48
2022/11/22 03:42:31;;;;;;;6.47;4.50;;;;;;;20.47;59.71;96088.75;2078039;28;19986;-48
2022/11/22 03:43:34;;;;;;;5.20;3.90;;;;;;;20.53;60.14;96087.69;2078138;28;20053;-46
2022/11/22 03:44:35;;;;;;;4.68;3.85;;;;;;;20.55;59.95;96091.97;2074353;28;20056;-48
2022/11/22 03:45:37;;;;;;;6.00;4.18;;;;;;;20.59;59.64;96091.16;2079161;28;20701;-48
2022/11/22 03:46:38;;;;;;;4.32;3.85;;;;;;;20.60;59.89;96087.38;2076523;28;20054;-48
2022/11/22 03:47:39;;;;;;;;;;;;;;;20.50;59.85;96084.69;2079621;28;20844;-47
2022/11/22 03:48:40;;;;;;;;;;;;;;;20.43;60.22;96084.19;2078567;28;19929;-45
2022/11/22 03:49:42;;;;;;;5.67;4.13;;;;;;;20.46;59.92;96075.56;2077849;28;20443;-49
2022/11/22 03:50:43;;;;;;;4.38;3.78;;;;;;;20.52;59.72;96079.84;2076768;28;20335;-46
2022/11/22 03:51:44;;;;;;;5.40;3.60;;;;;;;20.57;59.65;96082.53;2077400;28;20578;-48
2022/11/22 03:52:45;;;;;;;5.13;3.95;;;;;;;20.58;59.56;96073.38;2080476;28;20601;-49
2022/11/22 03:53:47;;;;;;;;;;;;;;;20.49;60.07;96075.00;2079939;28;20168;-49
2022/11/22 03:54:47;;;;;;;;;;;;;;;20.40;60.25;96076.69;2076765;28;19928;-47
2022/11/22 03:55:49;;;;;;;4.40;3.65;;;;;;;20.47;59.95;96085.25;2080040;28;19921;-50
2022/11/22 03:56:50;;;;;;;4.90;3.70;;;;;;;20.53;59.79;96087.69;2076383;28;20053;-48
2022/11/22 03:57:51;;;;;;;6.03;4.00;;;;;;;20.57;59.74;96087.94;2078995;28;20052;-47
2022/11/22 03:58:54;;;;;;;5.13;3.97;;;;;;;20.60;59.59;96092.75;2079783;28;20064;-46
2022/11/22 03:59:55;;;;;;;5.28;3.70;;;;;;;20.61;59.58;96072.00;2079376;28;20067;-47
2022/11/22 04:00:57;;;;;;;5.15;4.43;;;;;;;20.62;59.70;96079.81;2077772;28;20229;-47
2022/11/22 04:01:58;;;;;;;5.07;3.38;;;;;;;20.64;59.38;96072.25;2078206;28;20053;-48
2022/11/22 04:03:00;;;;;;;5.63;3.67;;;;;;;20.64;59.60;96071.44;2078103;28;20049;-46
2022/11/22 04:04:02;;;;;;;5.30;3.75;;;;;;;20.63;59.73;96064.47;2079407;28;20049;-49
2022/11/22 04:05:04;;;;;;;4.85;3.67;;;;;;;20.64;59.52;96068.75;2078187;28;20695;-49
2022/11/22 04:06:05;;;;;;;5.63;3.97;;;;;;;20.64;59.37;96072.25;2079141;28;21061;-46
2022/11/22 04:07:06;;;;;;;5.32;4.07;;;;;;;20.65;59.58;96063.09;2079346;28;20090;-48
2022/11/22 04:08:08;;;;;;;5.05;4.45;;;;;;;20.65;59.44;96063.09;2080163;28;20049;-47
2022/11/22 04:09:09;;;;;;;4.95;3.08;;;;;;;20.65;59.50;96063.09;2077271;28;20456;-47
2022/11/22 04:10:11;;;;;;;5.90;4.13;;;;;;;20.64;59.36;96053.41;2078222;28;20052;-46
2022/11/22 04:11:12;;;;;;;3.85;3.35;;;;;;;20.66;59.49;96053.94;2078276;28;20049;-47
2022/11/22 04:12:13;;;;;;;4.88;4.07;;;;;;;20.65;59.40;96056.91;2079356;28;20053;-47
2022/11/22 04:13:14;;;;;;;5.10;3.92;;;;;;;20.64;59.53;96052.59;2075502;28;20128;-50
2022/11/22 04:15:36;;;;;;;4.82;3.60;;;;;;;20.59;59.49;96042.69;2078767;28;20053;-48
2022/11/22 04:16:38;;;;;;;4.63;3.40;;;;;;;20.61;59.62;96034.31;2079386;28;20556;-48
2022/11/22 04:17:43;;;;;;;4.70;3.85;;;;;;;20.62;59.37;96025.97;2077343;28;20934;-47
2022/11/22 04:18:45;;;;;;;6.70;4.90;;;;;;;20.61;59.55;96024.34;2078656;28;20595;-48
2022/11/22 04:21:32;;;;;;;5.15;3.83;;;;;;;20.60;59.54;96030.81;2079752;28;20061;-50
2022/11/22 04:21:33;;;;;;;6.13;4.03;;;;;;;20.57;59.80;96033.28;2079940;28;20078;-48
2022/11/22 04:22:34;;;;;;;5.00;3.53;;;;;;;20.55;59.54;96019.28;2078927;28;20051;-49
2022/11/22 04:23:36;;;;;;;6.88;3.92;;;;;;;20.57;59.36;96012.53;2082845;28;20086;-47
2022/11/22 04:25:55;;;;;;;5.75;3.53;;;;;;;20.54;59.40;96007.69;2079275;28;20137;-47
2022/11/22 04:26:57;;;;;;;5.55;3.85;;;;;;;20.53;59.57;96001.53;2080061;28;20049;-47
2022/11/22 04:27:59;;;;;;;4.72;3.38;;;;;;;20.55;59.52;95997.72;2081319;28;20147;-46
2022/11/22 04:29:01;;;;;;;4.70;3.75;;;;;;;20.53;59.55;95998.81;2079478;28;20512;-47
2022/11/22 04:30:03;;;;;;;5.40;3.42;;;;;;;20.56;59.81;95996.63;2079832;28;21215;-48
2022/11/22 04:33:43;;;;;;;5.10;3.97;;;;;;;20.47;59.83;95982.94;2080349;28;20672;-49
2022/11/22 04:34:44;;;;;;;6.70;4.45;;;;;;;20.48;59.79;95985.34;2081645;28;20045;-46
2022/11/22 04:35:46;;;;;;;;;;;;;;;20.39;60.02;95983.53;2079783;28;20049;-50
2022/11/22 04:36:46;;;;;;;5.15;3.05;;;;;;;20.40;59.93;95975.19;2082096;28;20403;-48
2022/11/22 04:37:50;;;;;;;;;;;;;;;20.31;59.93;95974.97;2081502;28;20057;-49
2022/11/22 04:38:51;;;;;;;5.63;3.95;;;;;;;20.39;59.78;95967.38;2083996;28;20321;-50
2022/11/22 04:39:52;;;;;;;6.57;4.13;;;;;;;20.47;59.85;95969.47;2084207;28;20172;-47
2022/11/22 04:40:53;;;;;;;4.70;3.95;;;;;;;20.49;59.56;95968.13;2084033;28;20136;-45
2022/11/22 04:44:41;;;;;;;4.38;3.42;;;;;;;20.47;59.69;95954.13;2084547;28;20049;-48
2022/11/22 04:45:43;;;;;;;5.50;3.28;;;;;;;20.50;59.91;95956.28;2084875;28;20053;-49
2022/11/22 04:46:45;;;;;;;4.47;3.53;;;;;;;20.53;59.49;95958.44;2083541;28;20073;-47
2022/11/22 04:47:58;;;;;;;5.85;4.00;;;;;;;20.56;59.77;95957.06;2080859;28;20599;-47
2022/11/22 04:48:59;;;;;;;5.07;3.38;;;;;;;20.57;59.79;95961.38;2080754;28;21190;-46
2022/11/22 04:50:01;;;;;;;5.47;4.50;;;;;;;20.59;59.59;95951.13;2080787;28;20076;-46
2022/11/22 04:53:43;;;;;;;4.93;3.80;;;;;;;20.62;59.45;95939.78;2083572;28;20124;-46
2022/11/22 04:54:44;;;;;;;5.30;3.35;;;;;;;20.62;59.51;95945.16;2079681;28;20108;-47
2022/11/22 04:55:46;;;;;;;;;;;;;;;20.53;59.60;95946.84;2081138;28;20350;-47
2022/11/22 04:56:47;;;;;;;6.00;3.88;;;;;;;20.56;59.68;95943.59;2078395;28;19924;-48
2022/11/22 04:57:49;;;;;;;4.07;3.17;;;;;;;20.61;59.81;95942.75;2079837;28;20049;-46
2022/11/22 04:58:51;;;;;;;3.67;3.13;;;;;;;20.64;59.45;95940.28;2078864;28;20060;-48
2022/11/22 04:59:52;;;;;;;4.38;3.08;;;;;;;20.68;59.21;95935.16;2081213;28;20041;-47
2022/11/22 05:00:55;;;;;;;;;;;;;;;20.56;59.62;95935.53;2080303;28;20135;-49
2022/11/22 05:01:55;;;;;;;4.05;2.83;;;;;;;20.60;59.71;95928.47;2080366;28;21676;-46
2022/11/22 05:02:58;;;;;;;;;;;;;;;20.53;59.74;95926.13;2079164;28;20053;-46
2022/11/22 05:03:58;;;;;;;5.22;3.53;;;;;;;20.57;59.81;95931.75;2081211;28;19928;-47
2022/11/22 05:05:00;;;;;;;;;;;;;;;20.53;59.74;95936.06;2083336;28;20111;-46
2022/11/22 05:06:02;;;;;;;;;;;;;;;20.46;59.94;95927.50;2078831;28;19929;-46
2022/11/22 05:07:03;;;;;;;3.28;2.60;;;;;;;20.53;60.19;95925.28;2080325;28;19928;-48
2022/11/22 05:08:05;;;;;;;;;;;;;;;20.46;60.03;95924.81;2082625;28;20136;-48